Time;durP1;ratioP1;P1;durP2;ratioP2;P2;SDS_P1;SDS_P2;PMS_P1;PMS_P2;Temp;Humidity;BMP_temperature;BMP_pressure;BME280_temperature;BME280_humidity;BME280_pressure;Samples;Min_cycle;Max_cycle;Signal;HPM_P1;HPM_P2
2023/04/21 00:02:22;;;;;;;29.77;14.60;;;;;;;;;;6349769;22;20022;-77
2023/04/21 00:05:12;;;;;;;23.05;14.07;;;;;;;;;;6349391;22;20050;-76
2023/04/21 00:07:58;;;;;;;20.65;14.38;;;;;;;;;;6326485;22;20019;-77
2023/04/21 00:10:43;;;;;;;24.42;14.38;;;;;;;;;;6349766;22;20014;-76
2023/04/21 00:13:29;;;;;;;30.95;19.00;;;;;;;;;;6326249;22;20018;-75
2023/04/21 00:16:15;;;;;;;35.80;18.40;;;;;;;;;;6349456;22;20022;-76
2023/04/21 00:19:03;;;;;;;32.47;16.83;;;;;;;;;;6349225;22;20015;-75
2023/04/21 00:21:48;;;;;;;36.67;17.65;;;;;;;;;;6349318;22;20018;-78
2023/04/21 00:24:34;;;;;;;33.00;17.23;;;;;;;;;;6349168;22;20027;-76
2023/04/21 00:27:20;;;;;;;32.85;17.88;;;;;;;;;;6349316;22;20332;-78
2023/04/21 00:30:06;;;;;;;32.60;17.67;;;;;;;;;;6351218;22;20015;-78
2023/04/21 00:32:51;;;;;;;42.60;22.02;;;;;;;;;;6341616;22;20341;-76
2023/04/21 00:35:37;;;;;;;28.85;16.90;;;;;;;;;;6351114;22;20015;-75
2023/04/21 00:38:23;;;;;;;33.90;14.13;;;;;;;;;;6327762;22;20019;-76
2023/04/21 00:41:08;;;;;;;20.48;13.00;;;;;;;;;;6328219;22;20019;-75
2023/04/21 00:44:09;;;;;;;22.52;12.15;;;;;;;;;;6351462;22;20019;-75
2023/04/21 00:46:55;;;;;;;17.88;10.35;;;;;;;;;;6327682;22;20441;-78
2023/04/21 00:49:41;;;;;;;20.83;10.40;;;;;;;;;;6327798;22;20345;-75
2023/04/21 00:52:27;;;;;;;12.20;9.40;;;;;;;;;;6327858;22;20423;-76
2023/04/21 00:55:13;;;;;;;11.82;8.35;;;;;;;;;;6328006;22;20015;-76
2023/04/21 00:58:02;;;;;;;14.43;8.55;;;;;;;;;;6327721;22;20014;-79
2023/04/21 01:00:47;;;;;;;17.35;8.88;;;;;;;;;;6326905;22;20019;-78
2023/04/21 01:03:33;;;;;;;11.73;8.57;;;;;;;;;;6351011;22;20022;-76
2023/04/21 01:06:18;;;;;;;14.43;8.90;;;;;;;;;;6350708;22;20019;-78
2023/04/21 01:09:04;;;;;;;12.23;9.02;;;;;;;;;;6350730;22;20018;-76
2023/04/21 01:12:10;;;;;;;16.35;9.15;;;;;;;;;;6351140;22;20018;-78
2023/04/21 01:14:55;;;;;;;15.93;10.18;;;;;;;;;;6350676;22;20022;-76
2023/04/21 01:17:42;;;;;;;17.52;10.65;;;;;;;;;;6351100;22;20421;-78
2023/04/21 01:20:28;;;;;;;19.65;11.48;;;;;;;;;;6350722;22;20018;-76
2023/04/21 01:23:13;;;;;;;16.02;10.70;;;;;;;;;;6327836;22;20023;-76
2023/04/21 01:26:00;;;;;;;18.23;11.15;;;;;;;;;;6327815;22;20010;-78
2023/04/21 01:28:46;;;;;;;19.35;11.32;;;;;;;;;;6350652;22;20019;-79
2023/04/21 01:31:32;;;;;;;18.75;11.05;;;;;;;;;;6344892;22;20018;-78
2023/04/21 01:34:17;;;;;;;21.23;11.52;;;;;;;;;;6302867;22;20436;-75
2023/04/21 01:37:03;;;;;;;17.45;11.55;;;;;;;;;;6349881;22;20014;-75
2023/04/21 01:39:55;;;;;;;19.42;11.68;;;;;;;;;;6349355;22;20015;-76
2023/04/21 01:42:42;;;;;;;18.35;12.73;;;;;;;;;;6350444;22;20014;-75
2023/04/21 01:45:27;;;;;;;22.55;12.88;;;;;;;;;;6327266;22;20014;-78
2023/04/21 01:48:13;;;;;;;22.40;12.98;;;;;;;;;;6350263;22;20019;-75
2023/04/21 01:50:59;;;;;;;20.30;12.05;;;;;;;;;;6350190;22;20432;-77
2023/04/21 01:53:44;;;;;;;31.88;16.75;;;;;;;;;;6349111;22;20023;-78
2023/04/21 01:56:29;;;;;;;27.30;17.52;;;;;;;;;;6349655;22;20015;-78
2023/04/21 01:59:15;;;;;;;33.15;20.63;;;;;;;;;;6327075;22;20344;-78
2023/04/21 02:02:01;;;;;;;34.45;17.70;;;;;;;;;;6327192;22;20015;-78
2023/04/21 02:04:46;;;;;;;31.55;18.58;;;;;;;;;;6327208;22;20015;-76
2023/04/21 02:07:31;;;;;;;30.15;18.08;;;;;;;;;;6327255;22;20015;-75
2023/04/21 02:10:16;;;;;;;70.70;18.92;;;;;;;;;;6327156;22;20018;-77
2023/04/21 02:13:02;;;;;;;29.98;18.77;;;;;;;;;;6327152;22;20015;-77
2023/04/21 02:15:48;;;;;;;108.15;46.65;;;;;;;;;;6350466;22;20019;-77
2023/04/21 02:18:33;;;;;;;53.13;26.02;;;;;;;;;;6326959;22;20015;-75
2023/04/21 02:21:20;;;;;;;39.70;21.30;;;;;;;;;;6350106;22;20019;-76
2023/04/21 02:24:07;;;;;;;34.00;20.30;;;;;;;;;;6327145;22;20011;-77
2023/04/21 02:26:53;;;;;;;35.17;20.65;;;;;;;;;;6327101;22;20344;-77
2023/04/21 02:29:38;;;;;;;35.90;20.83;;;;;;;;;;6326743;22;20018;-77
2023/04/21 02:32:26;;;;;;;29.88;19.00;;;;;;;;;;6326422;22;20015;-77
2023/04/21 02:35:12;;;;;;;33.33;20.27;;;;;;;;;;6350035;22;20015;-78
2023/04/21 02:37:57;;;;;;;27.67;17.67;;;;;;;;;;6326537;22;20027;-78
2023/04/21 02:40:42;;;;;;;21.85;15.68;;;;;;;;;;6326973;22;20018;-77
2023/04/21 02:43:27;;;;;;;25.10;13.75;;;;;;;;;;6326722;22;20018;-75
2023/04/21 02:46:14;;;;;;;17.77;12.05;;;;;;;;;;6326591;22;20022;-76
2023/04/21 02:49:00;;;;;;;21.85;11.45;;;;;;;;;;6349908;22;20352;-77
2023/04/21 02:51:45;;;;;;;20.15;11.70;;;;;;;;;;6349716;22;20015;-76
2023/04/21 02:54:31;;;;;;;17.02;11.50;;;;;;;;;;6349931;22;20011;-75
2023/04/21 02:57:16;;;;;;;19.35;10.38;;;;;;;;;;6350467;22;20019;-77
2023/04/21 03:00:03;;;;;;;15.25;10.90;;;;;;;;;;6326443;22;20015;-76
2023/04/21 03:02:49;;;;;;;17.90;11.63;;;;;;;;;;6326565;22;20015;-77
2023/04/21 03:05:34;;;;;;;19.13;10.82;;;;;;;;;;6349901;22;20023;-77
2023/04/21 03:08:20;;;;;;;15.20;10.82;;;;;;;;;;6349905;22;20019;-77
2023/04/21 03:11:05;;;;;;;17.13;11.23;;;;;;;;;;6349492;22;20432;-77
2023/04/21 03:13:51;;;;;;;14.32;11.32;;;;;;;;;;6326308;22;20019;-76
2023/04/21 03:16:37;;;;;;;19.13;11.40;;;;;;;;;;6349502;22;20022;-76
2023/04/21 03:19:24;;;;;;;25.38;13.55;;;;;;;;;;6349585;22;20019;-77
2023/04/21 03:22:10;;;;;;;18.92;11.95;;;;;;;;;;6349564;22;20023;-76
2023/04/21 03:24:55;;;;;;;19.23;12.15;;;;;;;;;;6326552;22;20015;-76
2023/04/21 03:27:41;;;;;;;16.73;11.18;;;;;;;;;;6326318;22;20018;-77
2023/04/21 03:30:27;;;;;;;17.40;12.32;;;;;;;;;;6350246;22;20019;-76
2023/04/21 03:33:12;;;;;;;21.67;12.45;;;;;;;;;;6304287;22;20019;-76
2023/04/21 03:35:57;;;;;;;20.02;12.10;;;;;;;;;;6326320;22;20014;-77
2023/04/21 03:38:42;;;;;;;21.00;12.32;;;;;;;;;;6326356;22;20019;-76
2023/04/21 03:41:27;;;;;;;16.05;11.20;;;;;;;;;;6326084;22;20018;-77
2023/04/21 03:44:12;;;;;;;17.13;11.38;;;;;;;;;;6326608;22;20018;-78
2023/04/21 03:46:58;;;;;;;22.35;13.00;;;;;;;;;;6349597;22;20015;-76
2023/04/21 03:49:44;;;;;;;31.27;18.80;;;;;;;;;;6326657;22;20019;-78
2023/04/21 03:52:29;;;;;;;28.60;15.48;;;;;;;;;;6349773;22;20018;-76
2023/04/21 03:55:15;;;;;;;24.65;16.00;;;;;;;;;;6349457;22;20369;-76
2023/04/21 03:58:00;;;;;;;24.60;16.02;;;;;;;;;;6349664;22;20015;-76
2023/04/21 04:00:46;;;;;;;36.25;18.98;;;;;;;;;;6349472;22;20340;-76
2023/04/21 04:03:32;;;;;;;31.13;18.70;;;;;;;;;;6350161;22;20344;-78
2023/04/21 04:06:17;;;;;;;34.28;19.13;;;;;;;;;;6351384;22;20420;-76
2023/04/21 04:09:03;;;;;;;29.35;18.02;;;;;;;;;;6350475;22;20015;-78
2023/04/21 04:11:49;;;;;;;37.65;20.70;;;;;;;;;;6351465;22;20019;-78
2023/04/21 04:14:34;;;;;;;27.75;17.23;;;;;;;;;;6350870;22;20023;-77
2023/04/21 04:17:19;;;;;;;26.70;17.15;;;;;;;;;;6351233;22;20340;-76
2023/04/21 04:20:07;;;;;;;22.20;15.23;;;;;;;;;;6351542;22;20019;-76
2023/04/21 04:22:51;;;;;;;31.50;17.77;;;;;;;;;;6350613;22;20019;-78
2023/04/21 04:25:38;;;;;;;30.67;17.27;;;;;;;;;;6351271;22;20015;-80
2023/04/21 04:28:23;;;;;;;36.58;21.52;;;;;;;;;;6351209;22;20023;-77
2023/04/21 04:31:08;;;;;;;35.95;19.60;;;;;;;;;;6348954;22;20011;-78
2023/04/21 04:33:54;;;;;;;44.08;21.30;;;;;;;;;;6351420;22;20340;-76
2023/04/21 04:36:41;;;;;;;46.42;23.33;;;;;;;;;;6351201;22;20011;-76
2023/04/21 04:39:26;;;;;;;48.42;23.80;;;;;;;;;;6351152;22;20452;-78
2023/04/21 04:42:12;;;;;;;42.25;21.23;;;;;;;;;;6351444;22;20348;-78
2023/04/21 04:45:00;;;;;;;49.72;23.25;;;;;;;;;;6350855;22;20022;-78
2023/04/21 04:47:47;;;;;;;56.30;25.88;;;;;;;;;;6351320;22;20015;-78
2023/04/21 04:50:32;;;;;;;49.80;23.38;;;;;;;;;;6350967;22;20014;-78
2023/04/21 04:53:18;;;;;;;61.30;25.52;;;;;;;;;;6350799;22;20015;-78
2023/04/21 04:56:04;;;;;;;32.28;17.65;;;;;;;;;;6350950;22;20350;-78
2023/04/21 04:58:49;;;;;;;27.30;16.15;;;;;;;;;;6350833;22;20015;-76
2023/04/21 05:01:36;;;;;;;23.30;14.23;;;;;;;;;;6350963;22;20018;-77
2023/04/21 05:04:22;;;;;;;18.45;12.15;;;;;;;;;;6327102;22;20019;-77
2023/04/21 05:07:07;;;;;;;24.33;12.20;;;;;;;;;;6350745;22;20018;-76
2023/04/21 05:09:53;;;;;;;26.65;12.85;;;;;;;;;;6351138;22;20022;-78
2023/04/21 05:12:38;;;;;;;29.95;12.77;;;;;;;;;;6350203;22;20019;-78
2023/04/21 05:15:24;;;;;;;19.83;11.10;;;;;;;;;;6350823;22;20018;-78
2023/04/21 05:18:09;;;;;;;16.90;10.98;;;;;;;;;;6350574;22;20348;-78
2023/04/21 05:20:55;;;;;;;22.58;13.05;;;;;;;;;;6350462;22;20023;-78
2023/04/21 05:23:41;;;;;;;19.27;11.23;;;;;;;;;;6350715;22;20023;-78
2023/04/21 05:26:28;;;;;;;15.05;10.50;;;;;;;;;;6350626;22;20340;-78
2023/04/21 05:29:13;;;;;;;19.02;11.65;;;;;;;;;;6349992;22;20019;-76
2023/04/21 05:31:59;;;;;;;21.02;12.98;;;;;;;;;;6344342;22;20440;-78
2023/04/21 05:34:44;;;;;;;19.98;11.75;;;;;;;;;;6350028;22;20337;-78
2023/04/21 05:37:29;;;;;;;18.27;11.70;;;;;;;;;;6349408;22;20019;-78
2023/04/21 05:40:15;;;;;;;17.50;9.48;;;;;;;;;;6326131;22;20019;-78
2023/04/21 05:43:00;;;;;;;34.08;16.70;;;;;;;;;;6350632;22;20019;-76
2023/04/21 05:45:45;;;;;;;14.00;7.60;;;;;;;;;;6350919;22;20019;-79
2023/04/21 05:48:31;;;;;;;20.75;10.80;;;;;;;;;;6350273;22;20435;-76
2023/04/21 05:51:16;;;;;;;14.85;6.95;;;;;;;;;;6350534;22;20018;-76
2023/04/21 05:54:02;;;;;;;4.15;3.22;;;;;;;;;;6350217;22;20018;-79
2023/04/21 05:56:47;;;;;;;18.42;9.93;;;;;;;;;;6350105;22;20011;-78
2023/04/21 05:59:33;;;;;;;7.60;5.25;;;;;;;;;;6350116;22;20018;-75
2023/04/21 06:02:18;;;;;;;17.88;9.82;;;;;;;;;;6350234;22;20015;-78
2023/04/21 06:05:05;;;;;;;7.60;5.18;;;;;;;;;;6350072;22;20018;-80
2023/04/21 06:07:50;;;;;;;7.30;4.80;;;;;;;;;;6350140;22;20019;-76
2023/04/21 06:10:35;;;;;;;9.75;5.38;;;;;;;;;;6350086;22;20352;-79
2023/04/21 06:13:21;;;;;;;8.10;5.57;;;;;;;;;;6349951;22;20015;-79
2023/04/21 06:16:06;;;;;;;7.28;5.07;;;;;;;;;;6349992;22;20014;-79
2023/04/21 06:18:52;;;;;;;11.85;8.10;;;;;;;;;;6350433;22;20328;-76
2023/04/21 06:21:38;;;;;;;15.18;8.95;;;;;;;;;;6349893;22;20019;-77
2023/04/21 06:24:24;;;;;;;23.58;13.30;;;;;;;;;;6350351;22;20019;-76
2023/04/21 06:27:12;;;;;;;23.23;11.63;;;;;;;;;;6349746;22;20332;-76
2023/04/21 06:29:58;;;;;;;18.20;10.90;;;;;;;;;;6349725;22;20424;-77
2023/04/21 06:32:47;;;;;;;15.82;9.75;;;;;;;;;;6341174;22;20015;-76
2023/04/21 06:35:33;;;;;;;17.35;8.60;;;;;;;;;;6349791;22;20015;-79
2023/04/21 06:38:19;;;;;;;15.00;9.93;;;;;;;;;;6349755;22;20018;-79
2023/04/21 06:41:05;;;;;;;16.05;9.52;;;;;;;;;;6326603;22;20019;-79
2023/04/21 06:43:51;;;;;;;15.38;10.38;;;;;;;;;;6349648;22;20018;-79
2023/04/21 06:46:36;;;;;;;17.48;11.18;;;;;;;;;;6349770;22;20348;-76
2023/04/21 06:49:22;;;;;;;14.43;9.80;;;;;;;;;;6349571;22;20018;-79
2023/04/21 06:52:07;;;;;;;15.80;7.28;;;;;;;;;;6349668;22;20019;-79
2023/04/21 06:54:53;;;;;;;18.40;11.07;;;;;;;;;;6349663;22;20018;-77
2023/04/21 06:57:38;;;;;;;16.67;10.40;;;;;;;;;;6349649;22;20019;-77
2023/04/21 07:00:24;;;;;;;16.73;10.85;;;;;;;;;;6349589;22;20018;-79
2023/04/21 07:03:10;;;;;;;17.35;10.73;;;;;;;;;;6349856;22;20015;-80
2023/04/21 07:05:55;;;;;;;33.72;12.00;;;;;;;;;;6349606;22;20067;-79
2023/04/21 07:08:40;;;;;;;13.93;9.90;;;;;;;;;;6349924;22;20011;-77
2023/04/21 07:11:27;;;;;;;20.23;11.50;;;;;;;;;;6349491;22;20022;-77
2023/04/21 07:14:12;;;;;;;12.98;9.55;;;;;;;;;;6349359;22;20440;-79
2023/04/21 07:16:58;;;;;;;14.68;9.10;;;;;;;;;;6349247;22;20019;-76
2023/04/21 07:19:43;;;;;;;12.23;8.27;;;;;;;;;;6349727;22;20019;-76
2023/04/21 07:22:28;;;;;;;15.25;8.23;;;;;;;;;;6349933;22;20416;-77
2023/04/21 07:25:14;;;;;;;24.38;11.07;;;;;;;;;;6349251;22;20015;-76
2023/04/21 07:28:02;;;;;;;14.40;9.27;;;;;;;;;;6349832;22;20337;-78
2023/04/21 07:30:46;;;;;;;12.18;8.38;;;;;;;;;;6348918;22;20289;-78
2023/04/21 07:33:31;;;;;;;12.43;8.05;;;;;;;;;;6349168;22;20336;-78
2023/04/21 07:36:17;;;;;;;19.73;9.85;;;;;;;;;;6349704;22;20019;-78
2023/04/21 07:39:02;;;;;;;13.23;9.32;;;;;;;;;;6351640;22;20432;-79
2023/04/21 07:41:48;;;;;;;21.05;7.93;;;;;;;;;;6351912;22;20023;-77
2023/04/21 07:44:34;;;;;;;13.88;7.85;;;;;;;;;;6351444;22;20018;-77
2023/04/21 07:47:19;;;;;;;12.93;8.20;;;;;;;;;;6351627;22;20018;-76
2023/04/21 07:50:05;;;;;;;16.70;9.80;;;;;;;;;;6351386;22;20344;-78
2023/04/21 07:52:50;;;;;;;19.67;11.18;;;;;;;;;;6351398;22;20014;-77
2023/04/21 07:55:36;;;;;;;21.00;11.32;;;;;;;;;;6351279;22;20019;-79
2023/04/21 07:58:21;;;;;;;17.08;9.88;;;;;;;;;;6351514;22;20019;-78
2023/04/21 08:01:07;;;;;;;18.77;11.35;;;;;;;;;;6328220;22;20019;-79
2023/04/21 08:03:52;;;;;;;29.30;12.18;;;;;;;;;;6351635;22;20023;-77
2023/04/21 08:06:38;;;;;;;20.45;11.57;;;;;;;;;;6351223;22;20011;-78
2023/04/21 08:09:24;;;;;;;15.48;9.27;;;;;;;;;;6351352;22;20014;-77
2023/04/21 08:12:09;;;;;;;13.35;7.90;;;;;;;;;;6351254;22;20018;-77
2023/04/21 08:14:55;;;;;;;11.48;8.07;;;;;;;;;;6350966;22;20018;-77
2023/04/21 08:17:39;;;;;;;11.55;8.00;;;;;;;;;;6351292;22;20014;-79
2023/04/21 08:20:25;;;;;;;13.05;8.23;;;;;;;;;;6351157;22;20014;-79
2023/04/21 08:23:10;;;;;;;9.07;6.38;;;;;;;;;;6351456;22;20019;-76
2023/04/21 08:25:56;;;;;;;18.52;9.00;;;;;;;;;;6351434;22;20023;-77
2023/04/21 08:28:41;;;;;;;9.80;4.93;;;;;;;;;;6350974;22;20015;-79
2023/04/21 08:31:27;;;;;;;15.30;8.73;;;;;;;;;;6348360;22;20011;-77
2023/04/21 08:34:14;;;;;;;12.82;7.95;;;;;;;;;;6350761;22;20018;-77
2023/04/21 08:36:59;;;;;;;13.02;7.35;;;;;;;;;;6350940;22;20019;-77
2023/04/21 08:39:46;;;;;;;8.55;5.78;;;;;;;;;;6351151;22;20336;-78
2023/04/21 08:42:32;;;;;;;18.17;7.80;;;;;;;;;;6350955;22;20018;-76
2023/04/21 08:45:17;;;;;;;14.98;8.02;;;;;;;;;;6351152;22;20019;-81
2023/04/21 08:48:04;;;;;;;10.00;5.40;;;;;;;;;;6325541;22;20022;-83
2023/04/21 08:50:50;;;;;;;15.70;8.25;;;;;;;;;;6325916;22;20014;-85
2023/04/21 08:53:36;;;;;;;5.15;2.60;;;;;;;;;;6348984;22;20015;-88
2023/04/21 08:56:26;;;;;;;10.85;5.57;;;;;;;;;;6326185;22;20436;-81
2023/04/21 08:59:13;;;;;;;10.85;5.57;;;;;;;;;;6348953;22;20018;-79
2023/04/21 09:02:14;;;;;;;16.10;6.25;;;;;;;;;;6354001;22;20018;-84
2023/04/21 09:04:59;;;;;;;9.02;5.35;;;;;;;;;;6383330;22;20018;-78
2023/04/21 09:07:45;;;;;;;12.48;5.47;;;;;;;;;;6380687;22;20010;-79
2023/04/21 09:10:30;;;;;;;14.10;4.80;;;;;;;;;;6382596;22;20014;-79
2023/04/21 09:13:18;;;;;;;10.85;4.32;;;;;;;;;;6382697;22;20023;-79
2023/04/21 09:16:14;;;;;;;16.05;5.25;;;;;;;;;;6385652;22;20014;-77
2023/04/21 09:19:00;;;;;;;9.95;4.40;;;;;;;;;;6382485;22;20339;-76
2023/04/21 09:21:45;;;;;;;13.07;4.43;;;;;;;;;;6382802;22;20332;-78
2023/04/21 09:24:30;;;;;;;11.13;4.07;;;;;;;;;;6382419;22;20018;-77
2023/04/21 09:27:16;;;;;;;9.02;4.20;;;;;;;;;;6382815;22;20347;-79
2023/04/21 09:30:05;;;;;;;7.07;3.83;;;;;;;;;;6384097;22;20014;-80
2023/04/21 09:32:54;;;;;;;11.35;4.45;;;;;;;;;;6376605;22;20415;-79
2023/04/21 09:35:40;;;;;;;11.20;5.55;;;;;;;;;;6382709;22;20014;-77
2023/04/21 09:38:25;;;;;;;9.65;4.00;;;;;;;;;;6379588;22;20018;-77
2023/04/21 09:41:11;;;;;;;11.77;4.88;;;;;;;;;;6381437;22;20014;-76
2023/04/21 09:44:00;;;;;;;8.57;3.90;;;;;;;;;;6381522;22;20022;-75
2023/04/21 09:46:52;;;;;;;5.47;3.00;;;;;;;;;;6382097;22;20010;-73
2023/04/21 09:49:43;;;;;;;13.07;4.50;;;;;;;;;;6380453;22;20022;-76
2023/04/21 09:52:29;;;;;;;8.38;4.43;;;;;;;;;;6380738;22;20018;-76
2023/04/21 09:55:15;;;;;;;8.60;4.13;;;;;;;;;;6381308;22;20018;-74
2023/04/21 09:58:01;;;;;;;10.25;4.72;;;;;;;;;;6382237;22;20010;-75
2023/04/21 10:00:48;;;;;;;8.38;3.90;;;;;;;;;;6381702;22;20019;-76
2023/04/21 10:03:38;;;;;;;3.03;2.47;;;;;;;;;;6383148;22;20011;-76
2023/04/21 10:06:23;;;;;;;14.70;4.20;;;;;;;;;;6382869;22;20022;-77
2023/04/21 10:09:12;;;;;;;17.10;4.38;;;;;;;;;;6381665;22;20019;-78
2023/04/21 10:12:00;;;;;;;7.30;3.40;;;;;;;;;;6381919;22;20022;-77
2023/04/21 10:14:52;;;;;;;8.63;3.92;;;;;;;;;;6382273;22;20022;-77
2023/04/21 10:17:37;;;;;;;11.27;4.07;;;;;;;;;;6381519;22;20018;-77
2023/04/21 10:20:23;;;;;;;6.10;2.47;;;;;;;;;;6381581;22;20018;-77
2023/04/21 10:23:08;;;;;;;7.32;4.38;;;;;;;;;;6382068;22;20014;-75
2023/04/21 10:26:05;;;;;;;8.63;4.85;;;;;;;;;;6382365;22;20022;-76
2023/04/21 10:29:00;;;;;;;11.65;4.78;;;;;;;;;;6371652;22;20015;-75
2023/04/21 10:31:52;;;;;;;11.95;4.57;;;;;;;;;;6376785;22;20018;-78
2023/04/21 10:34:38;;;;;;;12.75;4.95;;;;;;;;;;6382074;22;20014;-78
2023/04/21 10:37:23;;;;;;;59.30;6.18;;;;;;;;;;6381538;22;20014;-78
2023/04/21 10:40:31;;;;;;;8.80;4.78;;;;;;;;;;6381486;22;20019;-77
2023/04/21 10:43:45;;;;;;;8.82;4.50;;;;;;;;;;6382272;22;20022;-77
2023/04/21 10:46:35;;;;;;;9.15;4.30;;;;;;;;;;6381890;22;20014;-76
2023/04/21 10:49:23;;;;;;;9.57;4.45;;;;;;;;;;6382163;22;20014;-78
2023/04/21 10:52:11;;;;;;;7.22;4.47;;;;;;;;;;6381491;22;20010;-79
2023/04/21 10:55:06;;;;;;;9.77;5.25;;;;;;;;;;6381719;22;20022;-76
2023/04/21 10:57:52;;;;;;;14.55;7.90;;;;;;;;;;6381346;22;20022;-76
2023/04/21 11:00:38;;;;;;;15.20;5.45;;;;;;;;;;6381811;22;20018;-76
2023/04/21 11:03:24;;;;;;;12.77;4.05;;;;;;;;;;6381825;22;20018;-74
2023/04/21 11:06:18;;;;;;;8.20;3.85;;;;;;;;;;6381278;22;20022;-75
2023/04/21 11:09:04;;;;;;;8.80;3.50;;;;;;;;;;6381184;22;20018;-77
2023/04/21 11:11:57;;;;;;;10.45;3.67;;;;;;;;;;6381060;22;20014;-76
2023/04/21 11:14:46;;;;;;;16.98;4.10;;;;;;;;;;6381155;22;20340;-75
2023/04/21 11:17:31;;;;;;;9.43;4.30;;;;;;;;;;6381124;22;20014;-76
2023/04/21 11:20:17;;;;;;;7.63;3.53;;;;;;;;;;6380977;22;20447;-75
2023/04/21 11:23:02;;;;;;;9.43;3.63;;;;;;;;;;6370891;22;20022;-76
2023/04/21 11:25:48;;;;;;;8.32;3.78;;;;;;;;;;6381641;22;20442;-74
2023/04/21 11:28:34;;;;;;;10.80;4.28;;;;;;;;;;6381501;22;20019;-78
2023/04/21 11:31:20;;;;;;;8.43;5.10;;;;;;;;;;6373217;22;20022;-78
2023/04/21 11:34:07;;;;;;;13.50;5.68;;;;;;;;;;6370065;22;20024;-80
2023/04/21 11:36:52;;;;;;;11.20;5.50;;;;;;;;;;6381296;22;20332;-82
2023/04/21 11:39:40;;;;;;;13.32;5.82;;;;;;;;;;6381625;22;20022;-81
2023/04/21 11:42:25;;;;;;;15.82;5.80;;;;;;;;;;6381081;22;20014;-78
2023/04/21 11:45:18;;;;;;;11.93;5.40;;;;;;;;;;6381148;22;20014;-78
2023/04/21 11:48:16;;;;;;;11.50;6.10;;;;;;;;;;6381077;22;20014;-81
2023/04/21 11:51:02;;;;;;;11.40;5.13;;;;;;;;;;6381193;22;20335;-78
2023/04/21 11:53:47;;;;;;;16.83;5.57;;;;;;;;;;6381276;22;20022;-78
2023/04/21 11:56:38;;;;;;;13.95;5.63;;;;;;;;;;6381397;22;20022;-79
2023/04/21 11:59:25;;;;;;;14.50;5.32;;;;;;;;;;6381151;22;20019;-79
2023/04/21 12:02:20;;;;;;;17.63;5.30;;;;;;;;;;6335739;22;20022;-77
2023/04/21 12:05:07;;;;;;;12.98;4.28;;;;;;;;;;6381070;22;20018;-75
2023/04/21 12:07:55;;;;;;;19.75;5.63;;;;;;;;;;6381219;22;20014;-79
2023/04/21 12:10:44;;;;;;;12.18;5.78;;;;;;;;;;6380770;22;20018;-76
2023/04/21 12:13:31;;;;;;;14.43;6.80;;;;;;;;;;6358172;22;20331;-76
2023/04/21 12:16:17;;;;;;;12.90;5.32;;;;;;;;;;6380596;22;20179;-79
2023/04/21 12:19:02;;;;;;;8.32;3.92;;;;;;;;;;6380860;22;20014;-77
2023/04/21 12:21:55;;;;;;;11.02;4.25;;;;;;;;;;6380727;22;20022;-78
2023/04/21 12:24:42;;;;;;;9.40;4.78;;;;;;;;;;6381484;22;20022;-78
2023/04/21 12:27:27;;;;;;;5.80;3.63;;;;;;;;;;6382554;22;20022;-80
2023/04/21 12:30:13;;;;;;;10.20;3.35;;;;;;;;;;6382412;22;20014;-77
2023/04/21 12:32:58;;;;;;;8.20;3.50;;;;;;;;;;6372836;22;20019;-77
2023/04/21 12:35:44;;;;;;;6.40;2.88;;;;;;;;;;6359186;22;20014;-77
2023/04/21 12:38:29;;;;;;;8.13;4.40;;;;;;;;;;6382135;22;20014;-77
2023/04/21 12:41:15;;;;;;;8.20;3.97;;;;;;;;;;6381771;22;20018;-83
2023/04/21 12:44:00;;;;;;;11.38;4.68;;;;;;;;;;6382349;22;20014;-78
2023/04/21 12:46:47;;;;;;;11.38;4.75;;;;;;;;;;6383035;22;20022;-81
2023/04/21 12:49:33;;;;;;;9.68;4.13;;;;;;;;;;6382337;22;20018;-80
2023/04/21 12:52:18;;;;;;;5.47;3.47;;;;;;;;;;6358412;22;20436;-80
2023/04/21 12:55:05;;;;;;;7.40;3.85;;;;;;;;;;6382169;22;20022;-81
2023/04/21 12:57:51;;;;;;;7.32;3.13;;;;;;;;;;6382591;22;20014;-76
2023/04/21 13:00:37;;;;;;;5.63;3.28;;;;;;;;;;6382408;22;20332;-76
2023/04/21 13:03:22;;;;;;;9.48;4.18;;;;;;;;;;6358319;22;20014;-75
2023/04/21 13:06:09;;;;;;;8.77;4.30;;;;;;;;;;6382427;22;20026;-78
2023/04/21 13:08:54;;;;;;;7.97;3.58;;;;;;;;;;6358246;22;20018;-76
2023/04/21 13:11:40;;;;;;;7.28;4.10;;;;;;;;;;6382250;22;20014;-79
2023/04/21 13:14:26;;;;;;;10.60;4.28;;;;;;;;;;6382274;22;20347;-76
2023/04/21 13:17:12;;;;;;;10.93;4.70;;;;;;;;;;6381980;22;20018;-77
2023/04/21 13:19:57;;;;;;;14.25;4.55;;;;;;;;;;6382295;22;20018;-77
2023/04/21 13:22:42;;;;;;;13.80;4.80;;;;;;;;;;6382308;22;20034;-77
2023/04/21 13:25:28;;;;;;;11.35;4.32;;;;;;;;;;6381786;22;20018;-80
2023/04/21 13:28:15;;;;;;;12.45;4.82;;;;;;;;;;6382499;22;20018;-76
2023/04/21 13:31:00;;;;;;;8.55;3.85;;;;;;;;;;6380956;22;20018;-76
2023/04/21 13:33:46;;;;;;;18.45;5.10;;;;;;;;;;6382657;22;20018;-74
2023/04/21 13:36:32;;;;;;;11.65;5.90;;;;;;;;;;6381932;22;20018;-80
2023/04/21 13:39:17;;;;;;;8.73;4.60;;;;;;;;;;6382010;22;20435;-75
2023/04/21 13:42:06;;;;;;;14.18;5.88;;;;;;;;;;6381792;22;20018;-75
2023/04/21 13:45:12;;;;;;;8.52;4.35;;;;;;;;;;6381777;22;20331;-77
2023/04/21 13:47:58;;;;;;;10.80;4.45;;;;;;;;;;6382355;22;20022;-81
2023/04/21 13:50:43;;;;;;;13.10;5.65;;;;;;;;;;6380771;22;20018;-80
2023/04/21 13:53:29;;;;;;;21.65;5.90;;;;;;;;;;6380943;22;20018;-76
2023/04/21 13:56:15;;;;;;;11.70;4.90;;;;;;;;;;6380862;22;20022;-76
2023/04/21 13:59:00;;;;;;;10.18;5.00;;;;;;;;;;6380804;22;20423;-77
2023/04/21 14:01:46;;;;;;;12.77;4.32;;;;;;;;;;6381702;22;20023;-80
2023/04/21 14:04:31;;;;;;;16.35;5.15;;;;;;;;;;6381451;22;20014;-80
2023/04/21 14:07:18;;;;;;;11.63;5.22;;;;;;;;;;6358264;22;20018;-77
2023/04/21 14:10:04;;;;;;;7.85;4.20;;;;;;;;;;6358665;22;20015;-77
2023/04/21 14:12:49;;;;;;;10.23;4.05;;;;;;;;;;6381604;22;20014;-76
2023/04/21 14:15:34;;;;;;;7.00;3.67;;;;;;;;;;6381128;22;20014;-77
2023/04/21 14:18:20;;;;;;;8.80;3.45;;;;;;;;;;6381422;22;20010;-77
2023/04/21 14:21:06;;;;;;;14.05;4.63;;;;;;;;;;6357894;22;20015;-78
2023/04/21 14:23:51;;;;;;;10.68;4.07;;;;;;;;;;6370542;22;20018;-78
2023/04/21 14:26:37;;;;;;;13.70;4.68;;;;;;;;;;6381596;22;20019;-77
2023/04/21 14:29:22;;;;;;;9.40;3.92;;;;;;;;;;6381240;22;20010;-76
2023/04/21 14:32:08;;;;;;;14.07;4.90;;;;;;;;;;6380709;22;20022;-77
2023/04/21 14:34:53;;;;;;;11.80;4.40;;;;;;;;;;6381407;22;20014;-76
2023/04/21 14:37:40;;;;;;;14.50;4.70;;;;;;;;;;6381000;22;20018;-77
2023/04/21 14:40:25;;;;;;;9.90;4.50;;;;;;;;;;6381851;22;20015;-77
2023/04/21 14:43:10;;;;;;;5.55;2.92;;;;;;;;;;6381503;22;20018;-78
2023/04/21 14:45:56;;;;;;;6.07;3.13;;;;;;;;;;6380605;22;20014;-76
2023/04/21 14:48:42;;;;;;;5.10;3.00;;;;;;;;;;6381390;22;20018;-76
2023/04/21 14:51:27;;;;;;;5.07;2.67;;;;;;;;;;6382527;22;20018;-76
2023/04/21 14:54:13;;;;;;;6.65;3.20;;;;;;;;;;6381293;22;20435;-77
2023/04/21 14:57:00;;;;;;;10.50;4.53;;;;;;;;;;6381194;22;20026;-76
2023/04/21 14:59:45;;;;;;;9.50;4.03;;;;;;;;;;6381203;22;20093;-79
2023/04/21 15:02:31;;;;;;;9.10;5.05;;;;;;;;;;6381145;22;20448;-81
2023/04/21 15:05:17;;;;;;;13.18;3.95;;;;;;;;;;6378821;22;20027;-77
2023/04/21 15:08:04;;;;;;;10.18;4.10;;;;;;;;;;6379596;22;20443;-81
2023/04/21 15:10:55;;;;;;;7.13;3.78;;;;;;;;;;6380481;22;20439;-78
2023/04/21 15:13:41;;;;;;;4.30;2.83;;;;;;;;;;6381086;22;20018;-82
2023/04/21 15:16:26;;;;;;;5.55;3.30;;;;;;;;;;6380597;22;20022;-78
2023/04/21 15:19:12;;;;;;;12.10;4.38;;;;;;;;;;6381140;22;20014;-77
2023/04/21 15:21:58;;;;;;;6.68;3.45;;;;;;;;;;6380911;22;20018;-77
2023/04/21 15:24:44;;;;;;;7.40;3.38;;;;;;;;;;6381046;22;20019;-78
2023/04/21 15:27:30;;;;;;;9.95;4.95;;;;;;;;;;6381045;22;20018;-81
2023/04/21 15:30:15;;;;;;;10.73;2.85;;;;;;;;;;6380850;22;20018;-78
2023/04/21 15:33:01;;;;;;;9.85;5.03;;;;;;;;;;6371197;22;20343;-78
2023/04/21 15:35:47;;;;;;;9.60;4.40;;;;;;;;;;6381099;22;20432;-82
2023/04/21 15:38:32;;;;;;;13.68;5.68;;;;;;;;;;6372199;22;20014;-77
2023/04/21 15:41:17;;;;;;;11.50;5.72;;;;;;;;;;6380836;22;20014;-77
2023/04/21 15:44:03;;;;;;;13.85;6.97;;;;;;;;;;6380843;22;20014;-76
2023/04/21 15:46:49;;;;;;;7.43;4.40;;;;;;;;;;6380536;22;20022;-76
2023/04/21 15:49:34;;;;;;;14.23;6.32;;;;;;;;;;6380735;22;20422;-77
2023/04/21 15:52:20;;;;;;;21.42;6.05;;;;;;;;;;6380006;22;20018;-77
2023/04/21 15:55:06;;;;;;;15.40;5.82;;;;;;;;;;6380298;22;20331;-80
2023/04/21 15:57:51;;;;;;;14.90;6.55;;;;;;;;;;6380541;22;20014;-77
2023/04/21 16:00:37;;;;;;;18.20;5.75;;;;;;;;;;6382745;22;20014;-79
2023/04/21 16:03:22;;;;;;;13.50;5.40;;;;;;;;;;6382977;22;20343;-80
2023/04/21 16:06:08;;;;;;;17.38;7.78;;;;;;;;;;6359111;22;20015;-78
2023/04/21 16:08:53;;;;;;;20.42;7.00;;;;;;;;;;6382712;22;20339;-82
2023/04/21 16:11:39;;;;;;;15.52;6.55;;;;;;;;;;6382845;22;20015;-80
2023/04/21 16:14:31;;;;;;;17.23;6.45;;;;;;;;;;6382496;22;20018;-79
2023/04/21 16:20:51;;;;;;;10.52;6.25;;;;;;;;;;6383009;22;20018;-77
2023/04/21 16:23:37;;;;;;;11.93;5.03;;;;;;;;;;6382213;22;20019;-75
2023/04/21 16:26:22;;;;;;;16.92;6.43;;;;;;;;;;6382948;22;20023;-78